Airfield :
LOGIN :

Register | Disclaimer

   EN    FR    IT 

 










Legend :    VFR   Marginal VFR   IFR   Intensive IFR   Very Intensive IFR
Visi :
Ceiling :
>= 8 km
>= 3000ft
5 to 8 km
1000 to 3000 ft
1500m to 5 km
500 to 1000 ft
800 to 1500m
200 to 500 ft
< 800m
< 200 ft
Symbols :   Thunderstorms  Fog  Heavy snow  Heavy precipitations  Wind > 20 kt
SIGMETs :     Misc.  Thunderstorms  Icing  Turbulence  Mountain Waves  Volcanic Ashes






- Airport Elevation : 1776 ft
- IATA code : BWK


LDSB - Bol

CURRENT METAR :
  • 221000Z 19006KT 130V230 CAVOK 30/15 Q1013

EXPIRED METARs :
  • 220930Z 16007KT 120V210 CAVOK 30/15 Q1013
  • 220900Z 19007KT 130V260 CAVOK 30/14 Q1013
  • 220830Z 19005KT 100V260 CAVOK 30/15 Q1013
  • 220800Z 15006KT 120V200 CAVOK 30/15 Q1013
  • 220730Z 16006KT 120V200 CAVOK 29/14 Q1013
  • 220700Z 14007KT CAVOK 29/14 Q1013
  • 220630Z 14005KT CAVOK 28/14 Q1013
  • 220600Z 11004KT 070V210 CAVOK 28/15 Q1013

TAF TAF LDSB
Valid from the 22 at 06:00 until the 23 at 06:00 UTC


220525Z 2206/2306 VRB02KT CAVOK TX33/2212Z TN20/2303Z
BECMG 2209/2211 24010KT
BECMG 2216/2218 31012KT
BECMG 2304/2306 02005KT



MET'MAP, your aeronautical weather chart ! - Copyright ORBIFLY December 2007 - Disclaimer

ORBIFLY MET'MAP TEAM :

Programming & Development : Alexandra Zaïnal
Original concept : Baudouin d'Aumeries
Technical & hardware support : Manuel Goepfert
Assistance : Marc-Olivier Méhu




SOURCES & CREDITS :

   NOAA